Time;durP1;ratioP1;P1;durP2;ratioP2;P2;SDS_P1;SDS_P2;PMS_P1;PMS_P2;Temp;Humidity;BMP_temperature;BMP_pressure;BME280_temperature;BME280_humidity;BME280_pressure;Samples;Min_cycle;Max_cycle;Signal;HPM_P1;HPM_P2
2021/12/20 00:00:49;;;;;;;;;;;6.30;90.80;;;;;;5029388;28;19925;-59
2021/12/20 00:03:14;;;;;;;;;;;6.30;90.80;;;;;;4992363;28;19914;-60
2021/12/20 00:05:40;;;;;;;;;;;6.30;90.80;;;;;;5010289;28;20399;-60
2021/12/20 00:08:06;;;;;;;;;;;6.30;90.80;;;;;;5009237;28;19909;-60
2021/12/20 00:10:31;;;;;;;;;;;6.30;90.80;;;;;;5026820;28;19913;-60
2021/12/20 00:12:57;;;;;;;;;;;6.30;90.80;;;;;;5004991;28;20373;-60
2021/12/20 00:15:22;;;;;;;;;;;6.30;90.80;;;;;;5013065;28;20634;-61
2021/12/20 00:17:48;;;;;;;;;;;6.30;90.80;;;;;;5007299;28;20016;-60
2021/12/20 00:20:13;;;;;;;;;;;6.30;90.80;;;;;;5009966;28;20333;-60
2021/12/20 00:22:39;;;;;;;;;;;6.30;90.80;;;;;;4995643;28;19985;-61
2021/12/20 00:25:05;;;;;;;;;;;6.20;90.70;;;;;;5025611;28;19913;-60
2021/12/20 00:27:31;;;;;;;;;;;6.30;90.70;;;;;;5007284;28;19917;-61
2021/12/20 00:29:56;;;;;;;;;;;6.30;90.80;;;;;;5013353;28;19933;-60
2021/12/20 00:32:22;;;;;;;;;;;6.20;90.70;;;;;;5005768;28;19928;-60
2021/12/20 00:34:47;;;;;;;;;;;6.30;90.70;;;;;;5025462;28;20088;-60
2021/12/20 00:42:41;;;;;;;;;;;6.20;90.70;;;;;;5027817;28;19952;-60
2021/12/20 00:45:07;;;;;;;;;;;6.20;90.70;;;;;;5028351;28;19956;-60
2021/12/20 00:47:32;;;;;;;;;;;6.20;90.70;;;;;;5027929;28;20016;-60
2021/12/20 00:49:58;;;;;;;;;;;6.10;90.70;;;;;;5008862;28;19974;-60
2021/12/20 00:52:23;;;;;;;;;;;6.20;90.70;;;;;;5000381;28;20260;-60
2021/12/20 00:54:49;;;;;;;;;;;6.10;90.70;;;;;;4998235;28;19914;-60
2021/12/20 00:57:14;;;;;;;;;;;6.20;90.70;;;;;;5028465;28;20004;-60
2021/12/20 00:59:39;;;;;;;;;;;6.10;90.70;;;;;;4999529;28;19913;-60
2021/12/20 01:02:05;;;;;;;;;;;6.10;90.70;;;;;;5032081;28;19990;-61
2021/12/20 01:04:30;;;;;;;;;;;6.10;90.70;;;;;;5030952;28;19909;-60
2021/12/20 01:06:56;;;;;;;;;;;6.10;90.70;;;;;;5027648;28;19917;-61
2021/12/20 01:09:21;;;;;;;;;;;6.10;90.70;;;;;;5011164;28;19913;-61
2021/12/20 01:11:52;;;;;;;;;;;6.10;90.60;;;;;;5020043;28;19917;-60
2021/12/20 01:14:24;;;;;;;;;;;6.10;90.60;;;;;;5008709;28;19913;-60
2021/12/20 01:16:49;;;;;;;;;;;6.10;90.60;;;;;;5014626;28;19923;-59
2021/12/20 01:19:15;;;;;;;;;;;6.10;90.60;;;;;;5010587;28;20004;-60
2021/12/20 01:21:40;;;;;;;;;;;6.10;90.60;;;;;;5022996;28;19909;-60
2021/12/20 01:24:06;;;;;;;;;;;6.10;90.60;;;;;;5019708;28;19925;-61
2021/12/20 01:26:31;;;;;;;;;;;6.00;90.60;;;;;;5013226;28;19935;-60
2021/12/20 01:28:57;;;;;;;;;;;6.10;90.60;;;;;;5015274;28;20388;-61
2021/12/20 01:31:22;;;;;;;;;;;6.00;90.60;;;;;;5005489;28;19913;-60
2021/12/20 01:33:48;;;;;;;;;;;6.10;90.60;;;;;;5027838;28;19919;-60
2021/12/20 01:36:13;;;;;;;;;;;6.10;90.60;;;;;;5005187;28;20479;-60
2021/12/20 01:38:39;;;;;;;;;;;6.00;90.60;;;;;;5006475;28;19916;-60
2021/12/20 01:41:04;;;;;;;;;;;6.00;90.60;;;;;;5022725;28;19952;-61
2021/12/20 01:43:30;;;;;;;;;;;6.00;90.60;;;;;;5008352;28;20344;-60
2021/12/20 01:45:55;;;;;;;;;;;6.10;90.60;;;;;;5007829;28;19983;-60
2021/12/20 01:48:22;;;;;;;;;;;6.00;90.60;;;;;;5012141;28;19920;-60
2021/12/20 01:51:45;;;;;;;;;;;6.00;90.60;;;;;;5025916;28;20003;-59
2021/12/20 01:53:37;;;;;;;;;;;6.00;90.60;;;;;;5017799;28;20008;-60
2021/12/20 01:56:03;;;;;;;;;;;6.00;90.60;;;;;;5027239;28;20376;-60
2021/12/20 01:58:28;;;;;;;;;;;6.00;90.70;;;;;;4997715;28;19968;-61
2021/12/20 02:03:39;;;;;;;;;;;6.00;90.60;;;;;;5010043;28;19909;-60
2021/12/20 02:06:09;;;;;;;;;;;6.00;90.60;;;;;;4998456;28;19916;-61
2021/12/20 02:08:35;;;;;;;;;;;6.00;90.60;;;;;;5009455;28;20035;-61
2021/12/20 02:11:03;;;;;;;;;;;6.30;90.70;;;;;;5008825;28;19997;-59
2021/12/20 02:13:29;;;;;;;;;;;6.00;90.50;;;;;;5026322;28;19913;-60
2021/12/20 02:15:55;;;;;;;;;;;6.00;90.50;;;;;;5026953;28;20000;-61
2021/12/20 02:18:21;;;;;;;;;;;5.90;90.40;;;;;;5011623;28;20364;-60
2021/12/20 02:20:46;;;;;;;;;;;6.00;90.40;;;;;;5009016;28;19913;-60
2021/12/20 02:23:12;;;;;;;;;;;5.90;90.50;;;;;;5008667;28;19909;-60
2021/12/20 02:25:37;;;;;;;;;;;5.90;90.60;;;;;;5011081;28;20284;-60
2021/12/20 02:28:06;;;;;;;;;;;5.90;90.60;;;;;;5010552;28;19917;-60
2021/12/20 02:38:26;;;;;;;;;;;5.80;90.50;;;;;;5008402;28;20344;-60
2021/12/20 02:40:58;;;;;;;;;;;5.80;90.50;;;;;;5030579;28;19940;-61
2021/12/20 02:43:24;;;;;;;;;;;5.80;90.50;;;;;;5032379;28;19916;-60
2021/12/20 02:45:49;;;;;;;;;;;5.80;90.50;;;;;;5030845;28;19921;-61
2021/12/20 02:48:15;;;;;;;;;;;5.80;90.60;;;;;;5010815;28;19910;-60
2021/12/20 02:50:40;;;;;;;;;;;5.80;90.60;;;;;;5030919;28;20377;-61
2021/12/20 02:53:06;;;;;;;;;;;5.80;90.60;;;;;;5023922;28;19913;-60
2021/12/20 02:55:31;;;;;;;;;;;5.80;90.60;;;;;;5012002;28;19916;-60
2021/12/20 02:57:57;;;;;;;;;;;5.80;90.60;;;;;;5000077;28;19991;-60
2021/12/20 03:00:22;;;;;;;;;;;5.80;90.60;;;;;;5017847;28;20381;-60
2021/12/20 03:02:48;;;;;;;;;;;5.80;90.60;;;;;;5010546;28;19960;-60
2021/12/20 03:05:13;;;;;;;;;;;5.80;90.60;;;;;;5011680;28;20320;-60
2021/12/20 03:07:46;;;;;;;;;;;5.80;90.60;;;;;;5015052;28;19913;-60
2021/12/20 03:10:12;;;;;;;;;;;5.70;90.60;;;;;;5011712;28;20008;-60
2021/12/20 03:12:38;;;;;;;;;;;5.70;90.60;;;;;;5029516;28;20531;-60
2021/12/20 03:15:11;;;;;;;;;;;5.70;90.60;;;;;;5012669;28;19913;-60
2021/12/20 03:17:36;;;;;;;;;;;5.70;90.60;;;;;;5026881;28;19918;-60
2021/12/20 03:20:02;;;;;;;;;;;5.70;90.60;;;;;;5033468;28;19913;-60
2021/12/20 03:22:27;;;;;;;;;;;5.70;90.50;;;;;;5017862;28;20399;-60
2021/12/20 03:24:53;;;;;;;;;;;5.70;90.50;;;;;;5026650;28;20423;-60
2021/12/20 03:27:18;;;;;;;;;;;5.70;90.50;;;;;;5028660;28;19920;-60
2021/12/20 03:29:44;;;;;;;;;;;5.70;90.50;;;;;;5008278;28;19955;-60
2021/12/20 03:32:09;;;;;;;;;;;5.70;90.60;;;;;;5022740;28;19913;-60
2021/12/20 03:34:35;;;;;;;;;;;5.70;90.60;;;;;;5012819;28;19909;-60
2021/12/20 03:37:00;;;;;;;;;;;5.70;90.50;;;;;;5020798;28;20021;-61
2021/12/20 03:39:26;;;;;;;;;;;5.70;90.60;;;;;;5031276;28;19996;-60
2021/12/20 03:41:51;;;;;;;;;;;5.60;90.50;;;;;;5035239;28;19971;-60
2021/12/20 03:44:16;;;;;;;;;;;5.70;90.60;;;;;;5012641;28;19921;-60
2021/12/20 03:46:42;;;;;;;;;;;5.60;90.50;;;;;;5015469;28;20375;-60
2021/12/20 03:49:07;;;;;;;;;;;5.60;90.50;;;;;;5027332;28;19929;-60
2021/12/20 03:51:33;;;;;;;;;;;5.60;90.50;;;;;;4998049;28;20238;-60
2021/12/20 03:53:59;;;;;;;;;;;5.60;90.50;;;;;;5012127;28;19924;-60
2021/12/20 03:56:24;;;;;;;;;;;5.60;90.60;;;;;;5008860;28;20372;-59
2021/12/20 03:58:50;;;;;;;;;;;5.60;90.50;;;;;;5007242;28;19917;-60
2021/12/20 04:01:16;;;;;;;;;;;5.60;90.50;;;;;;5004868;28;19921;-61
2021/12/20 04:03:41;;;;;;;;;;;5.50;90.50;;;;;;5028230;28;20372;-60
2021/12/20 04:06:07;;;;;;;;;;;5.60;90.50;;;;;;5008865;28;19920;-60
2021/12/20 04:08:33;;;;;;;;;;;5.60;90.40;;;;;;5029542;28;19917;-60
2021/12/20 04:10:59;;;;;;;;;;;5.60;90.40;;;;;;5014110;28;19917;-60
2021/12/20 04:13:25;;;;;;;;;;;5.50;90.40;;;;;;5016148;28;19927;-61
2021/12/20 04:15:50;;;;;;;;;;;5.50;90.40;;;;;;5004476;28;19917;-60
2021/12/20 04:18:15;;;;;;;;;;;5.50;90.30;;;;;;5019850;28;19913;-60
2021/12/20 04:20:41;;;;;;;;;;;5.50;90.30;;;;;;5029660;28;19916;-60
2021/12/20 04:23:06;;;;;;;;;;;5.50;90.30;;;;;;5021958;28;20595;-60
2021/12/20 04:25:32;;;;;;;;;;;5.50;90.30;;;;;;5013234;28;19917;-60
2021/12/20 04:27:57;;;;;;;;;;;5.50;90.30;;;;;;5025717;28;20011;-60
2021/12/20 04:30:23;;;;;;;;;;;5.50;90.30;;;;;;5029258;28;19975;-60
2021/12/20 04:32:48;;;;;;;;;;;5.50;90.30;;;;;;5031444;28;20246;-60
2021/12/20 04:35:14;;;;;;;;;;;5.50;90.20;;;;;;5003276;28;20356;-60
2021/12/20 04:37:41;;;;;;;;;;;5.50;90.30;;;;;;5030815;28;19921;-60
2021/12/20 04:40:10;;;;;;;;;;;5.50;90.30;;;;;;5028344;28;19917;-60
2021/12/20 04:42:35;;;;;;;;;;;5.50;90.40;;;;;;5019997;28;19917;-60
2021/12/20 04:45:01;;;;;;;;;;;5.50;90.40;;;;;;5012874;28;19975;-60
2021/12/20 04:47:26;;;;;;;;;;;5.50;90.40;;;;;;5013656;28;19965;-61
2021/12/20 04:49:52;;;;;;;;;;;5.50;90.40;;;;;;5010823;28;19932;-60
2021/12/20 04:52:17;;;;;;;;;;;5.50;90.40;;;;;;5021573;28;20400;-62
2021/12/20 04:54:42;;;;;;;;;;;5.50;90.40;;;;;;5013879;28;19928;-60
2021/12/20 04:57:08;;;;;;;;;;;5.50;90.40;;;;;;5011943;28;19913;-61
2021/12/20 04:59:34;;;;;;;;;;;5.50;90.60;;;;;;5013521;28;19913;-60
2021/12/20 05:01:59;;;;;;;;;;;5.50;90.40;;;;;;5002096;28;19964;-60
2021/12/20 05:04:25;;;;;;;;;;;5.50;90.40;;;;;;5027352;28;19916;-60
2021/12/20 05:06:50;;;;;;;;;;;5.50;90.40;;;;;;5025576;28;19996;-60
2021/12/20 05:09:17;;;;;;;;;;;5.50;90.40;;;;;;5012600;28;19923;-61
2021/12/20 05:11:50;;;;;;;;;;;5.50;90.30;;;;;;5025297;28;19909;-61
2021/12/20 05:14:15;;;;;;;;;;;5.50;90.30;;;;;;5007308;28;19956;-61
2021/12/20 05:16:41;;;;;;;;;;;5.50;90.40;;;;;;5023806;28;20309;-61
2021/12/20 05:19:06;;;;;;;;;;;5.50;90.40;;;;;;5021995;28;19913;-60
2021/12/20 05:21:32;;;;;;;;;;;5.50;90.30;;;;;;5023073;28;20367;-60
2021/12/20 05:23:57;;;;;;;;;;;5.50;90.40;;;;;;5006353;28;19990;-60
2021/12/20 05:26:23;;;;;;;;;;;5.50;90.30;;;;;;5004792;28;19909;-60
2021/12/20 05:28:49;;;;;;;;;;;5.50;90.30;;;;;;5008380;28;19945;-60
2021/12/20 05:31:14;;;;;;;;;;;5.50;90.30;;;;;;5025452;28;20008;-61
2021/12/20 05:33:40;;;;;;;;;;;5.50;90.30;;;;;;5029371;28;20000;-60
2021/12/20 05:36:05;;;;;;;;;;;5.50;90.30;;;;;;5027808;28;20470;-60
2021/12/20 05:38:31;;;;;;;;;;;5.50;90.40;;;;;;4999166;28;19974;-60
2021/12/20 05:40:56;;;;;;;;;;;5.50;90.40;;;;;;5024613;28;20369;-60
2021/12/20 05:43:21;;;;;;;;;;;5.50;90.40;;;;;;5025579;28;19917;-61
2021/12/20 05:45:47;;;;;;;;;;;5.50;90.50;;;;;;5005032;28;20067;-60
2021/12/20 05:48:12;;;;;;;;;;;5.50;90.50;;;;;;4998264;28;19920;-61
2021/12/20 05:50:38;;;;;;;;;;;5.50;90.50;;;;;;5009881;28;20344;-60
2021/12/20 05:53:03;;;;;;;;;;;5.50;90.50;;;;;;5014454;28;19913;-60
2021/12/20 05:55:29;;;;;;;;;;;5.50;90.50;;;;;;5024752;28;20456;-61
2021/12/20 05:57:54;;;;;;;;;;;5.50;90.50;;;;;;5030503;28;19913;-60
2021/12/20 06:00:20;;;;;;;;;;;5.50;90.50;;;;;;4996729;28;19935;-60
2021/12/20 06:02:46;;;;;;;;;;;5.50;90.60;;;;;;5015804;28;20505;-60
2021/12/20 06:05:12;;;;;;;;;;;5.50;90.80;;;;;;5026319;28;19917;-60
2021/12/20 06:07:40;;;;;;;;;;;5.50;90.90;;;;;;5009247;28;19917;-60
2021/12/20 06:10:06;;;;;;;;;;;5.50;90.90;;;;;;5028478;28;19992;-60
2021/12/20 06:12:32;;;;;;;;;;;5.50;90.90;;;;;;5009611;28;19989;-60
2021/12/20 06:14:57;;;;;;;;;;;5.50;90.90;;;;;;5026410;28;19917;-60
2021/12/20 06:17:22;;;;;;;;;;;5.50;91.00;;;;;;5010181;28;19974;-61
2021/12/20 06:19:48;;;;;;;;;;;5.50;91.00;;;;;;5007174;28;19959;-61
2021/12/20 06:22:13;;;;;;;;;;;5.50;90.90;;;;;;5026807;28;19909;-60
2021/12/20 06:24:39;;;;;;;;;;;5.50;90.90;;;;;;5026325;28;20377;-59
2021/12/20 06:27:04;;;;;;;;;;;5.50;90.90;;;;;;5024983;28;19983;-61
2021/12/20 06:29:30;;;;;;;;;;;5.50;90.90;;;;;;5001594;28;19917;-61
2021/12/20 06:31:55;;;;;;;;;;;5.50;90.90;;;;;;5009079;28;20428;-60
2021/12/20 06:34:21;;;;;;;;;;;5.50;90.90;;;;;;5003779;28;19909;-60
2021/12/20 06:36:46;;;;;;;;;;;5.50;90.90;;;;;;5028208;28;19909;-60
2021/12/20 06:39:12;;;;;;;;;;;5.40;90.90;;;;;;5019986;28;20277;-59
2021/12/20 06:41:37;;;;;;;;;;;5.50;91.00;;;;;;5009320;28;19975;-60
2021/12/20 06:44:04;;;;;;;;;;;5.50;91.00;;;;;;5010136;28;19987;-60
2021/12/20 06:46:30;;;;;;;;;;;5.50;91.00;;;;;;5009679;28;19916;-63
2021/12/20 06:48:55;;;;;;;;;;;5.40;91.00;;;;;;5024747;28;19914;-63
2021/12/20 06:51:21;;;;;;;;;;;5.40;91.00;;;;;;5011020;28;19932;-63
2021/12/20 06:53:46;;;;;;;;;;;5.50;91.00;;;;;;5027072;28;19920;-63
2021/12/20 06:56:12;;;;;;;;;;;5.40;91.00;;;;;;5026172;28;19914;-63
2021/12/20 06:58:38;;;;;;;;;;;5.40;91.00;;;;;;5004920;28;19917;-62
2021/12/20 07:01:04;;;;;;;;;;;5.40;90.90;;;;;;5008274;28;20475;-63
2021/12/20 07:03:29;;;;;;;;;;;5.40;91.00;;;;;;5011169;28;19944;-63
2021/12/20 07:05:54;;;;;;;;;;;5.50;91.00;;;;;;5026322;28;19920;-63
2021/12/20 07:08:20;;;;;;;;;;;5.50;91.00;;;;;;5009824;28;19916;-63
2021/12/20 07:10:45;;;;;;;;;;;5.50;91.00;;;;;;5009476;28;20067;-63
2021/12/20 07:13:11;;;;;;;;;;;5.50;91.00;;;;;;5007608;28;19910;-62
2021/12/20 07:15:37;;;;;;;;;;;5.50;91.00;;;;;;5027344;28;20220;-62
2021/12/20 07:18:03;;;;;;;;;;;5.40;90.90;;;;;;5008379;28;19912;-63
2021/12/20 07:20:28;;;;;;;;;;;5.40;91.00;;;;;;5007846;28;19917;-63
2021/12/20 07:22:54;;;;;;;;;;;5.40;91.10;;;;;;5000222;28;19960;-63
2021/12/20 07:25:19;;;;;;;;;;;5.40;91.10;;;;;;4990889;28;20344;-63
2021/12/20 07:27:52;;;;;;;;;;;5.40;91.00;;;;;;5012677;28;19948;-63
2021/12/20 07:30:17;;;;;;;;;;;5.40;90.90;;;;;;5024813;28;20065;-63
2021/12/20 07:32:43;;;;;;;;;;;5.40;90.90;;;;;;5031751;28;19917;-62
2021/12/20 07:35:08;;;;;;;;;;;5.40;90.90;;;;;;5025056;28;19920;-63
2021/12/20 07:37:34;;;;;;;;;;;5.40;91.00;;;;;;5020667;28;20371;-63
2021/12/20 07:39:59;;;;;;;;;;;5.40;90.90;;;;;;5008138;28;19960;-63
2021/12/20 07:42:25;;;;;;;;;;;5.40;90.90;;;;;;5007818;28;20016;-62
2021/12/20 07:44:50;;;;;;;;;;;5.40;90.90;;;;;;5024223;28;20396;-62
2021/12/20 07:47:16;;;;;;;;;;;5.40;90.90;;;;;;4996852;28;19913;-63
2021/12/20 07:49:42;;;;;;;;;;;5.40;90.90;;;;;;5008113;28;19933;-63
2021/12/20 07:52:07;;;;;;;;;;;5.40;90.90;;;;;;4993096;28;19917;-62
2021/12/20 07:54:33;;;;;;;;;;;5.40;90.90;;;;;;5020911;28;20066;-62
2021/12/20 07:56:58;;;;;;;;;;;5.60;91.00;;;;;;5010166;28;20360;-64
2021/12/20 07:59:23;;;;;;;;;;;5.40;90.90;;;;;;5012508;28;19921;-63
2021/12/20 08:01:49;;;;;;;;;;;5.50;90.90;;;;;;5026361;28;19925;-62
2021/12/20 08:04:15;;;;;;;;;;;5.40;90.90;;;;;;4995518;28;20023;-63
2021/12/20 08:06:42;;;;;;;;;;;5.50;90.90;;;;;;5011678;28;19913;-63
2021/12/20 08:09:08;;;;;;;;;;;5.40;90.90;;;;;;5003653;28;19925;-63
2021/12/20 08:11:34;;;;;;;;;;;5.50;91.00;;;;;;5024164;28;20290;-63
2021/12/20 08:14:00;;;;;;;;;;;5.50;90.90;;;;;;4991844;28;19964;-60
2021/12/20 08:16:25;;;;;;;;;;;5.50;90.90;;;;;;5000562;28;19913;-60
2021/12/20 08:18:51;;;;;;;;;;;5.50;90.90;;;;;;4999676;28;19917;-60
2021/12/20 08:21:16;;;;;;;;;;;5.50;90.90;;;;;;5026087;28;19913;-59
2021/12/20 08:23:43;;;;;;;;;;;5.50;90.90;;;;;;5021320;28;19935;-63
2021/12/20 08:26:08;;;;;;;;;;;5.50;90.80;;;;;;5025315;28;19923;-63
2021/12/20 08:28:35;;;;;;;;;;;5.50;90.90;;;;;;4990356;28;19921;-63
2021/12/20 08:31:04;;;;;;;;;;;5.50;90.80;;;;;;5025578;28;20257;-63
2021/12/20 08:33:29;;;;;;;;;;;5.60;90.80;;;;;;5018774;28;19936;-63
2021/12/20 08:35:55;;;;;;;;;;;5.50;90.80;;;;;;5015545;28;19921;-62
2021/12/20 08:38:20;;;;;;;;;;;5.60;90.80;;;;;;5020701;28;20340;-63
2021/12/20 08:40:46;;;;;;;;;;;5.60;90.80;;;;;;5009287;28;20363;-62
2021/12/20 08:43:12;;;;;;;;;;;5.60;90.70;;;;;;5000689;28;19963;-62
2021/12/20 08:45:37;;;;;;;;;;;5.60;90.70;;;;;;4999511;28;20072;-62
2021/12/20 08:48:03;;;;;;;;;;;5.60;90.70;;;;;;4993665;28;19913;-63
2021/12/20 08:50:28;;;;;;;;;;;5.60;90.70;;;;;;5007423;28;20016;-63
2021/12/20 08:52:54;;;;;;;;;;;5.60;90.70;;;;;;5028364;28;19917;-62
2021/12/20 08:55:20;;;;;;;;;;;5.60;90.70;;;;;;5012517;28;19963;-62
2021/12/20 08:57:45;;;;;;;;;;;5.60;90.70;;;;;;5014835;28;19914;-62
2021/12/20 09:00:13;;;;;;;;;;;5.60;90.70;;;;;;5006172;28;19964;-62
2021/12/20 09:02:38;;;;;;;;;;;5.70;90.60;;;;;;4992302;28;19918;-63
2021/12/20 09:05:04;;;;;;;;;;;5.70;90.70;;;;;;5011749;28;19917;-63
2021/12/20 09:07:30;;;;;;;;;;;5.70;90.60;;;;;;5007413;28;19913;-63
2021/12/20 09:09:55;;;;;;;;;;;5.70;90.60;;;;;;5024746;28;19921;-63
2021/12/20 09:12:21;;;;;;;;;;;5.70;90.60;;;;;;5004277;28;19914;-63
2021/12/20 09:14:47;;;;;;;;;;;5.70;90.60;;;;;;5006870;28;19914;-62
2021/12/20 09:17:12;;;;;;;;;;;5.70;90.60;;;;;;5022896;28;19920;-62
2021/12/20 09:19:38;;;;;;;;;;;5.70;90.60;;;;;;4994676;28;19913;-62
2021/12/20 09:22:05;;;;;;;;;;;5.80;90.70;;;;;;5012752;28;19918;-63
2021/12/20 09:24:32;;;;;;;;;;;5.80;90.60;;;;;;5026810;28;19917;-63
2021/12/20 09:26:57;;;;;;;;;;;5.70;90.60;;;;;;5017749;28;20588;-62
2021/12/20 09:29:23;;;;;;;;;;;5.80;90.70;;;;;;5013463;28;19917;-63
2021/12/20 09:31:48;;;;;;;;;;;5.80;90.70;;;;;;5004943;28;19912;-62
2021/12/20 09:34:13;;;;;;;;;;;5.80;90.70;;;;;;5008018;28;19913;-63
2021/12/20 09:36:39;;;;;;;;;;;5.80;90.70;;;;;;5003685;28;20010;-63
2021/12/20 09:39:10;;;;;;;;;;;5.80;90.60;;;;;;4994670;28;20403;-63
2021/12/20 09:44:04;;;;;;;;;;;5.80;90.70;;;;;;5021568;28;20377;-63
2021/12/20 09:46:29;;;;;;;;;;;5.90;90.70;;;;;;5021418;28;19925;-63
2021/12/20 09:48:55;;;;;;;;;;;5.90;90.70;;;;;;5028048;28;20007;-60
2021/12/20 09:51:20;;;;;;;;;;;5.90;90.70;;;;;;5005436;28;19913;-60
2021/12/20 09:53:46;;;;;;;;;;;5.90;90.60;;;;;;5019515;28;19913;-60
2021/12/20 09:56:11;;;;;;;;;;;6.00;90.70;;;;;;5006746;28;19913;-59
2021/12/20 09:58:37;;;;;;;;;;;6.00;90.70;;;;;;4995186;28;19992;-62
2021/12/20 10:01:04;;;;;;;;;;;6.00;90.60;;;;;;4996105;28;19972;-62
2021/12/20 10:03:29;;;;;;;;;;;6.00;90.60;;;;;;5012612;28;20405;-61
2021/12/20 10:05:56;;;;;;;;;;;6.00;90.70;;;;;;5002913;28;19913;-60
2021/12/20 10:08:31;;;;;;;;;;;6.10;90.70;;;;;;5004156;28;19951;-60
2021/12/20 10:10:56;;;;;;;;;;;6.00;90.60;;;;;;5026320;28;20014;-61
2021/12/20 10:13:26;;;;;;;;;;;6.10;90.60;;;;;;5009936;28;19909;-60
2021/12/20 10:15:52;;;;;;;;;;;6.10;90.50;;;;;;5022636;28;19921;-60
2021/12/20 10:18:17;;;;;;;;;;;6.10;90.50;;;;;;5004751;28;19920;-60
2021/12/20 10:20:47;;;;;;;;;;;6.00;90.50;;;;;;5009027;28;19948;-63
2021/12/20 10:23:18;;;;;;;;;;;6.10;90.40;;;;;;5002311;28;19924;-60
2021/12/20 10:25:44;;;;;;;;;;;6.10;90.40;;;;;;5030469;28;19967;-61
2021/12/20 10:28:11;;;;;;;;;;;6.10;90.40;;;;;;5026422;28;19917;-60
2021/12/20 10:30:43;;;;;;;;;;;6.10;90.40;;;;;;5025257;28;20341;-60
2021/12/20 10:33:10;;;;;;;;;;;6.20;90.40;;;;;;5023182;28;19920;-60
2021/12/20 10:35:37;;;;;;;;;;;6.10;90.30;;;;;;5027051;28;19964;-59
2021/12/20 10:38:03;;;;;;;;;;;6.20;90.40;;;;;;5007289;28;19917;-60
2021/12/20 10:40:29;;;;;;;;;;;6.20;90.40;;;;;;5026373;28;20263;-61
2021/12/20 10:42:56;;;;;;;;;;;6.20;90.40;;;;;;5022338;28;20007;-60
2021/12/20 10:45:22;;;;;;;;;;;6.20;90.40;;;;;;5000524;28;19967;-61
2021/12/20 10:47:48;;;;;;;;;;;6.20;90.40;;;;;;4994702;28;19989;-60
2021/12/20 10:50:29;;;;;;;;;;;6.20;90.30;;;;;;4991454;28;19917;-60
2021/12/20 10:53:10;;;;;;;;;;;6.20;90.20;;;;;;5015695;28;19914;-60
2021/12/20 10:55:36;;;;;;;;;;;6.20;90.50;;;;;;5008259;28;19967;-60
2021/12/20 10:58:23;;;;;;;;;;;6.20;90.20;;;;;;4993065;28;19920;-60
2021/12/20 11:01:11;;;;;;;;;;;6.20;90.20;;;;;;5014720;28;19928;-61
2021/12/20 11:03:39;;;;;;;;;;;6.20;90.20;;;;;;5030912;28;19940;-61
2021/12/20 11:06:23;;;;;;;;;;;6.20;90.20;;;;;;5023268;28;20361;-60
2021/12/20 11:09:05;;;;;;;;;;;6.30;90.20;;;;;;5014143;28;19921;-61
2021/12/20 11:11:39;;;;;;;;;;;6.20;90.20;;;;;;4996502;28;19944;-60
2021/12/20 11:14:05;;;;;;;;;;;6.30;90.20;;;;;;5011294;28;19959;-60
2021/12/20 11:16:33;;;;;;;;;;;6.30;90.20;;;;;;4994375;28;19913;-61
2021/12/20 11:19:17;;;;;;;;;;;6.30;90.20;;;;;;5027577;28;19913;-60
2021/12/20 11:21:47;;;;;;;;;;;6.30;90.20;;;;;;5029423;28;19909;-60
2021/12/20 11:24:13;;;;;;;;;;;6.30;90.10;;;;;;4996021;28;20297;-61
2021/12/20 11:26:39;;;;;;;;;;;6.30;90.10;;;;;;5012051;28;19920;-61
2021/12/20 11:29:04;;;;;;;;;;;6.30;90.20;;;;;;5009039;28;19961;-60
2021/12/20 11:31:30;;;;;;;;;;;6.30;90.10;;;;;;5001521;28;19928;-61
2021/12/20 11:33:55;;;;;;;;;;;6.30;90.10;;;;;;5023798;28;20735;-62
2021/12/20 11:36:20;;;;;;;;;;;6.30;90.20;;;;;;5006035;28;19913;-62
2021/12/20 11:38:46;;;;;;;;;;;6.30;90.20;;;;;;4991952;28;19921;-61
2021/12/20 11:41:11;;;;;;;;;;;6.30;90.20;;;;;;5005008;28;19966;-60
2021/12/20 11:43:37;;;;;;;;;;;6.50;90.20;;;;;;5022440;28;19917;-61
2021/12/20 11:46:02;;;;;;;;;;;6.30;90.20;;;;;;4994632;28;19921;-62
2021/12/20 11:48:28;;;;;;;;;;;6.40;90.20;;;;;;5003835;28;19917;-61
2021/12/20 11:50:56;;;;;;;;;;;6.30;90.20;;;;;;5007472;28;19917;-60
2021/12/20 11:53:22;;;;;;;;;;;6.40;90.20;;;;;;5022840;28;19956;-61
2021/12/20 11:55:50;;;;;;;;;;;6.30;90.20;;;;;;5008591;28;19960;-60
2021/12/20 11:58:24;;;;;;;;;;;6.30;90.20;;;;;;5006932;28;19913;-60
2021/12/20 12:01:12;;;;;;;;;;;6.40;90.20;;;;;;5005437;28;20238;-60
2021/12/20 12:03:39;;;;;;;;;;;6.30;90.20;;;;;;5002739;28;19929;-60
2021/12/20 12:06:10;;;;;;;;;;;6.30;90.20;;;;;;4991818;28;19921;-60
2021/12/20 12:08:36;;;;;;;;;;;6.40;90.20;;;;;;5000673;28;20024;-60
2021/12/20 12:11:04;;;;;;;;;;;6.40;90.20;;;;;;5023164;28;20016;-60
2021/12/20 12:13:35;;;;;;;;;;;6.40;90.10;;;;;;5018490;28;19913;-60
2021/12/20 12:16:03;;;;;;;;;;;6.40;90.10;;;;;;5002364;28;19917;-60
2021/12/20 12:18:41;;;;;;;;;;;6.40;90.10;;;;;;5019234;28;20353;-60
2021/12/20 12:21:07;;;;;;;;;;;6.40;90.10;;;;;;4987089;28;20329;-63
2021/12/20 12:23:33;;;;;;;;;;;6.40;90.20;;;;;;4999095;28;20015;-61
2021/12/20 12:25:59;;;;;;;;;;;6.40;90.20;;;;;;5014696;28;20004;-60
2021/12/20 12:28:25;;;;;;;;;;;6.40;90.20;;;;;;4994569;28;20608;-60
2021/12/20 12:31:01;;;;;;;;;;;6.40;90.20;;;;;;5007918;28;19917;-61
2021/12/20 12:33:31;;;;;;;;;;;6.40;90.20;;;;;;5003127;28;19932;-60
2021/12/20 12:35:57;;;;;;;;;;;6.40;90.10;;;;;;4990429;28;19921;-60
2021/12/20 12:38:27;;;;;;;;;;;6.40;90.10;;;;;;5001785;28;19913;-61
2021/12/20 12:41:05;;;;;;;;;;;6.40;90.20;;;;;;5017581;28;19917;-60
2021/12/20 12:43:46;;;;;;;;;;;6.40;90.20;;;;;;5025014;28;20383;-60
2021/12/20 12:46:11;;;;;;;;;;;6.40;90.10;;;;;;5024734;28;19920;-60
2021/12/20 12:48:38;;;;;;;;;;;6.40;90.10;;;;;;5002638;28;19913;-61
2021/12/20 12:51:19;;;;;;;;;;;6.40;90.10;;;;;;5008081;28;19920;-60
2021/12/20 12:54:04;;;;;;;;;;;6.40;90.10;;;;;;5024233;28;20242;-60
2021/12/20 12:56:30;;;;;;;;;;;6.40;90.10;;;;;;5014961;28;20392;-60
2021/12/20 12:59:11;;;;;;;;;;;6.40;90.00;;;;;;5015122;28;19913;-60
2021/12/20 13:01:58;;;;;;;;;;;6.50;90.00;;;;;;5023660;28;19917;-60
2021/12/20 13:04:43;;;;;;;;;;;6.50;90.00;;;;;;5020445;28;20336;-61
2021/12/20 13:07:09;;;;;;;;;;;6.50;90.10;;;;;;5013367;28;20376;-60
2021/12/20 13:09:38;;;;;;;;;;;6.50;90.10;;;;;;4988109;28;19927;-61
2021/12/20 13:12:12;;;;;;;;;;;6.50;90.10;;;;;;5000900;28;20023;-60
2021/12/20 13:14:51;;;;;;;;;;;6.50;90.10;;;;;;5004368;28;20405;-61
2021/12/20 13:17:35;;;;;;;;;;;6.50;90.10;;;;;;5006873;28;19921;-60
2021/12/20 13:20:50;;;;;;;;;;;6.50;90.00;;;;;;5004865;28;20052;-61
2021/12/20 13:23:11;;;;;;;;;;;6.60;90.10;;;;;;5016835;28;20016;-61
2021/12/20 13:25:38;;;;;;;;;;;6.60;90.10;;;;;;5021614;28;19913;-60
2021/12/20 13:28:04;;;;;;;;;;;6.60;90.10;;;;;;4989914;28;20411;-61
2021/12/20 13:30:32;;;;;;;;;;;6.60;90.10;;;;;;5013937;28;20008;-60
2021/12/20 13:32:58;;;;;;;;;;;6.60;90.10;;;;;;5006765;28;19921;-61
2021/12/20 13:35:23;;;;;;;;;;;6.60;90.10;;;;;;5019651;28;19913;-60
2021/12/20 13:37:50;;;;;;;;;;;6.60;90.10;;;;;;5002547;28;19999;-61
2021/12/20 13:40:16;;;;;;;;;;;6.70;90.20;;;;;;5018724;28;19921;-61
2021/12/20 13:42:49;;;;;;;;;;;6.70;90.10;;;;;;5002924;28;19913;-61
2021/12/20 13:45:14;;;;;;;;;;;6.70;90.10;;;;;;5001832;28;20327;-61
2021/12/20 13:47:41;;;;;;;;;;;6.70;90.10;;;;;;4998246;28;19913;-61
2021/12/20 13:50:16;;;;;;;;;;;6.70;90.10;;;;;;5001831;28;19921;-61
2021/12/20 13:52:45;;;;;;;;;;;6.70;90.10;;;;;;5020016;28;19944;-61
2021/12/20 13:55:11;;;;;;;;;;;6.70;90.10;;;;;;5020799;28;20337;-61
2021/12/20 13:57:36;;;;;;;;;;;6.70;90.10;;;;;;4991678;28;19917;-60
2021/12/20 14:00:06;;;;;;;;;;;6.70;90.10;;;;;;5021598;28;20320;-61
2021/12/20 14:02:34;;;;;;;;;;;6.80;90.10;;;;;;5002103;28;19914;-61
2021/12/20 14:05:13;;;;;;;;;;;6.80;90.20;;;;;;5023875;28;19913;-62
2021/12/20 14:07:43;;;;;;;;;;;6.80;90.10;;;;;;5006759;28;19932;-61
2021/12/20 14:10:10;;;;;;;;;;;6.80;90.10;;;;;;4990522;28;19928;-62
2021/12/20 14:12:39;;;;;;;;;;;6.80;90.10;;;;;;5001190;28;19928;-61
2021/12/20 14:15:05;;;;;;;;;;;6.80;90.10;;;;;;5018315;28;20052;-62
2021/12/20 14:17:49;;;;;;;;;;;6.80;90.20;;;;;;5020130;28;20336;-62
2021/12/20 14:20:14;;;;;;;;;;;6.80;90.10;;;;;;5019470;28;19927;-61
2021/12/20 14:22:55;;;;;;;;;;;6.80;90.10;;;;;;4988600;28;19921;-61
2021/12/20 14:25:27;;;;;;;;;;;6.80;90.20;;;;;;4987943;28;20004;-62
2021/12/20 14:28:03;;;;;;;;;;;6.80;90.20;;;;;;5020045;28;20031;-61
2021/12/20 14:30:28;;;;;;;;;;;6.90;90.30;;;;;;5022919;28;19921;-61
2021/12/20 14:32:54;;;;;;;;;;;6.90;90.30;;;;;;5020050;28;19979;-61
2021/12/20 14:35:27;;;;;;;;;;;6.90;90.30;;;;;;4987588;28;20008;-61
2021/12/20 14:37:54;;;;;;;;;;;6.90;90.30;;;;;;4988281;28;19989;-60
2021/12/20 14:40:38;;;;;;;;;;;6.90;90.30;;;;;;4995961;28;19928;-61
2021/12/20 14:43:06;;;;;;;;;;;6.90;90.30;;;;;;5016278;28;19924;-60
2021/12/20 14:45:31;;;;;;;;;;;6.90;90.30;;;;;;5000757;28;19925;-60
2021/12/20 14:48:16;;;;;;;;;;;6.90;90.50;;;;;;4988549;28;20000;-60
2021/12/20 14:50:46;;;;;;;;;;;6.90;90.40;;;;;;5009365;28;19937;-61